»·PEaware :: UAL1124 KLAX-KSFO

UAL1124 :: KLAX-KSFO

FLIGHT INFORMATION

Flight Status: Arrived
Operator:
United Airlines
More flights by this operator :: More flights under this callsign
Pilot: Dave P. (45)
Aircraft: BOEING 737-600
(B736)
More flights by this aircraft type
Origin: KLAX Los Angeles Intl
United States
Destination: KSFO San Francisco Intl
United States
More flights between these airports :: More routes between these airports
Route: SUMMR1 STOKD SERFR SERFR3
File this flight plan on PilotEdge
Remarks: PBN / A1B1C1D1S1S2 DOF / 180506 REG / N736PM EET / KZOA0025 OPR / UAL PER / C RMK / TCAS SIMBRIEF
Altitude:
(Current/Filed)
34,000ft
Speed:
(Current/Filed)
460kts
Departed: 05-May-18 06:14 PM
Arrived: 05-May-18 07:06 PM
Distance/Time
Traveled:
294nm/0:52
Distance/Time
To Go:
Arrived

Flight Plot

Page will automatically refresh every two minutes.

Flight plan parsing failed; only flown route is shown


Map Options




Map Legend


Flown Route
Filed Route
Departure Airport
Arrival Airport
Navaid (VOR, NDB)
Fix

Horizontal Profiles

Position Reports

Time Latitude Longitude Heading Altitude Ground
Speed
05-May-18 17:59 33.941220 -118.400272 82 133ft 0kts
05-May-18 18:00 33.941220 -118.400272 82 133ft 0kts
05-May-18 18:01 33.941220 -118.400272 82 133ft 0kts
05-May-18 18:02 33.941220 -118.400272 82 133ft 0kts
05-May-18 18:03 33.941220 -118.400272 82 133ft 0kts
05-May-18 18:04 33.941260 -118.400669 118 133ft 2kts
05-May-18 18:05 33.941403 -118.400866 142 133ft 0kts
05-May-18 18:06 33.941403 -118.400866 142 133ft 0kts
05-May-18 18:07 33.940496 -118.400686 172 133ft 8kts
05-May-18 18:08 33.939416 -118.400491 156 133ft 10kts
05-May-18 18:09 33.939201 -118.396254 82 133ft 14kts
05-May-18 18:10 33.939667 -118.391567 79 133ft 17kts
05-May-18 18:11 33.940113 -118.387304 82 133ft 19kts
05-May-18 18:12 33.939978 -118.383242 177 133ft 13kts
05-May-18 18:13 33.937684 -118.383107 199 133ft 8kts
05-May-18 18:14 33.935317 -118.404836 262 386ft 140kts
05-May-18 18:15 33.930194 -118.453788 263 2519ft 180kts
05-May-18 18:16 33.926298 -118.528909 264 4306ft 263kts
05-May-18 18:17 33.918396 -118.620841 262 7660ft 288kts
05-May-18 18:18 33.917199 -118.720435 268 11037ft 305kts
05-May-18 18:19 33.916981 -118.833367 269 12361ft 363kts
05-May-18 18:20 33.920604 -118.955837 270 15867ft 370kts
05-May-18 18:21 33.951871 -119.074580 298 18924ft 388kts
05-May-18 18:22 34.014126 -119.183962 310 21680ft 407kts
05-May-18 18:23 34.106672 -119.269639 320 24043ft 428kts
05-May-18 18:24 34.205029 -119.354005 320 26228ft 440kts
05-May-18 18:24 34.288740 -119.426313 320 27813ft 449kts
05-May-18 18:26 34.408290 -119.531583 316 29745ft 459kts
05-May-18 18:27 34.497949 -119.639049 310 31964ft 447kts
05-May-18 18:28 34.584040 -119.745561 310 33953ft 441kts
05-May-18 18:29 34.670244 -119.852237 310 34030ft 438kts
05-May-18 18:30 34.755465 -119.957631 310 34062ft 438kts
05-May-18 18:30 34.826334 -120.045700 309 34070ft 436kts
05-May-18 18:31 34.911442 -120.151591 309 34088ft 436kts
05-May-18 18:32 34.995915 -120.257423 309 34092ft 436kts
05-May-18 18:33 35.080198 -120.363411 308 34093ft 435kts
05-May-18 18:34 35.169369 -120.464990 312 34092ft 438kts
05-May-18 18:35 35.259191 -120.565195 312 34088ft 438kts
05-May-18 18:36 35.348833 -120.665759 311 34085ft 437kts
05-May-18 18:37 35.438485 -120.767200 311 34068ft 437kts
05-May-18 18:38 35.531652 -120.863957 317 34051ft 443kts
05-May-18 18:39 35.630504 -120.955008 316 34046ft 443kts
05-May-18 18:40 35.728717 -121.046448 316 34032ft 443kts
05-May-18 18:41 35.827167 -121.138043 316 34032ft 445kts
05-May-18 18:42 35.926027 -121.230530 315 34038ft 445kts
05-May-18 18:43 36.024450 -121.323239 315 34046ft 447kts
05-May-18 18:44 36.126843 -121.411689 320 34059ft 453kts
05-May-18 18:45 36.232779 -121.493233 320 31456ft 452kts
05-May-18 18:46 36.339705 -121.576585 320 28366ft 446kts
05-May-18 18:47 36.442959 -121.657857 320 25659ft 434kts
05-May-18 18:48 36.541820 -121.735711 319 23698ft 409kts
05-May-18 18:49 36.636176 -121.810444 320 21364ft 389kts
05-May-18 18:50 36.727206 -121.881579 325 19127ft 385kts
05-May-18 18:51 36.832036 -121.919737 343 16773ft 397kts
05-May-18 18:52 36.936605 -121.948698 343 14511ft 369kts
05-May-18 18:53 37.027332 -121.981632 338 13512ft 316kts
05-May-18 18:54 37.110104 -122.014549 339 11695ft 308kts
05-May-18 18:55 37.190555 -122.046204 340 9979ft 300kts
05-May-18 18:56 37.270577 -122.077632 341 8224ft 295kts
05-May-18 18:57 37.346754 -122.107622 341 6591ft 281kts
05-May-18 18:58 37.417590 -122.133463 343 5534ft 244kts
05-May-18 18:59 37.478347 -122.152051 344 4565ft 201kts
05-May-18 19:00 37.528060 -122.168908 320 3417ft 176kts
05-May-18 19:01 37.552287 -122.216902 295 2485ft 154kts
05-May-18 19:02 37.571848 -122.263370 295 1692ft 145kts
05-May-18 19:03 37.589396 -122.305132 294 974ft 123kts
05-May-18 19:04 37.604973 -122.342235 293 338ft 118kts
05-May-18 19:05 37.618124 -122.373616 296 21ft 40kts
05-May-18 19:06 37.618928 -122.379172 267 21ft 13kts
05-May-18 19:07 37.620320 -122.383596 297 21ft 18kts
05-May-18 19:08 37.620121 -122.386187 280 21ft 0kts
05-May-18 19:09 37.620271 -122.386717 290 21ft 0kts
05-May-18 19:10 37.620271 -122.386717 290 21ft 0kts
05-May-18 19:12 37.620271 -122.386717 290 21ft 0kts

Navigation Log

Ident Type
Flight plan parsing failed, navigation log unavailable